Terminal Aerodrome Forecast
Issued by NWS Sioux Falls, SD

Home | Current Version | Previous Version | Text Only | Print | Product List | Glossary On
Versions: 1 2 3 4 5 6 7 8 9 10 11 12 13 14 15 16 17 18 19
000
FTUS43 KFSD 240843 AAA
TAFHON
TAF AMD
KHON 240843Z 2409/2506 16009KT P6SM SCT110 BKN200
     FM241000 16011KT P6SM VCSH SCT090 BKN150
     FM241300 17012KT P6SM SCT090 BKN130
     FM241700 18013G19KT P6SM VCTS FEW060CB SCT150
     FM250000 20011KT P6SM FEW050
     FM250300 19007KT P6SM SKC=

USA.gov is the U.S. government's official web portal to all federal, state and local government web resources and services.